Startpagina
METAR-TAF:

METAR-TAF

Vliegvelden :

Gibraltar, Gibraltar

Gibraltar Airport

breedte: 36-09N, lengte: 005-21W, hoogte: 5 m

Actueel weer

Dit bericht is 1 uur en het 19 minuten geleden gemaakt, om 01:50 UTC
Wind 9 kt uit het oosten
Temperatuur 24°C
Vochtigheid 83%
Druk 1015 hPa
Zicht 10 km of meer

METAR: LXGB 240150Z AUTO 10009KT 9999 // NCD 24/21 Q1015

Tijdstip: 05:09 (03:09 UTC)

Verwachting

Dit bericht is 10 uur en het 39 minuten geleden gemaakt, om 16:30 UTC
Verwachting geldig van 23 om 18 UTC tot 23 om 22 UTC
Wind 9 kt uit het oosten
Zicht 10 km of meer
Weinig wolken op 800 ft
Kans 40%
van 23 om 18 UTC tot 23 om 22 UTC
Zicht: 6000 m
Verspreide wolken op 800 ft
Heiigheid

TAF: LXGB 231630Z 2318/2322 09009KT 9999 FEW008 PROB40 2318/2322 6000 HZ SCT008

Waarnemingen en weersverwachtingen van meer dan 4000 vliegvelden (METAR en TAF).

De beschikbare stations zijn de gele en rode punten op de kaart.

Ga met uw muis naar het station om de naam te zien.

Klik dan om waarnemingen en weersverwachtingen te zien.

kaart wijzigen: klik op de groene knoppen met een zwart kruis om in te zoomen, op de groene knop met een streepje om uit te zoomen of op de groene pijlen voor aangrenzende kaarten.


METAR-TAF: